Latest Weather Observations for Lady Elliot Island

IDQ60801

Issued at 9:02 pm EST Wednesday 18 October 2017 (issued every 30 minutes, with the page automatically refreshed every 10 minutes)

About weather observations | Map of weather stations | Latest weather observations for QLD | Other Formats
Station Details ID: 039059 Name: LADY ELLIOT ISLAND Lat: -24.11 Lon: 152.72 Height: 3.6 m
Data from the previous 72 hours. | See also: Recent months at Lady Elliot Island
Date/Time
EST
Temp
°C
App
Temp
°C
Dew
Point
°C
Rel
Hum
%
Delta-T
°C
Wind Press
QNH
hPa
Press
MSL
hPa
Rain since
9am
mm
Dir  Spd
km/h
Gust
km/h
Spd
kts
Gust
kts
18/09:00pm 23.6 19.4 20.5 83 2.0 ESE 43 54 23 29 1021.3 1021.3 1.6
18/08:30pm 23.6 19.1 20.3 82 2.1 E 44 56 24 30 1020.9 1020.9 1.6
18/08:00pm 23.5 18.5 20.0 81 2.3 ESE 46 59 25 32 1020.6 1020.6 1.6
18/07:30pm 23.6 19.4 20.5 83 2.0 E 43 57 23 31 1020.3 1020.3 1.6
18/07:00pm 23.5 18.7 20.4 83 2.0 ESE 46 59 25 32 1020.0 1020.0 1.6
18/06:30pm 23.4 19.1 20.7 85 1.8 ESE 44 57 24 31 1019.8 1019.8 1.6
18/06:15pm 22.9 20.0 20.8 88 1.4 E 37 56 20 30 1019.6 1019.6 1.6
18/06:00pm 22.5 20.1 21.1 92 0.9 E 35 52 19 28 1019.5 1019.5 1.4
18/05:30pm 23.1 18.8 20.8 87 1.5 ESE 44 56 24 30 1019.3 1019.3 1.4
18/05:00pm 23.3 19.9 21.4 89 1.2 ESE 41 52 22 28 1019.0 1019.0 1.4
18/04:30pm 22.7 18.5 21.0 90 1.1 ESE 44 61 24 33 1018.4 1018.4 1.4
18/04:01pm 23.1 19.3 20.6 86 1.6 E 41 59 22 32 1018.2 1018.2 1.4
18/04:00pm 23.5 19.8 20.8 85 1.8 E 41 57 22 31 1018.2 1018.2 1.4
18/03:30pm 23.7 19.7 21.0 85 1.8 E 43 54 23 29 1017.9 1017.9 1.4
18/03:00pm 22.9 19.0 21.4 91 1.0 ESE 44 57 24 31 1018.1 1018.1 1.4
18/02:30pm 24.3 21.2 21.2 83 2.0 E 39 50 21 27 1017.9 1017.9 1.4
18/02:00pm 24.3 21.3 21.4 84 1.9 E 39 50 21 27 1018.0 1018.0 1.4
18/01:34pm 24.1 20.9 21.0 83 2.0 E 39 57 21 31 1018.1 1018.1 1.4
18/01:30pm 24.6 21.7 21.5 83 2.1 E 39 48 21 26 1018.1 1018.1 1.4
18/01:00pm 24.6 21.4 21.7 84 1.9 E 41 54 22 29 1018.3 1018.3 1.4
18/12:30pm 24.7 20.8 21.2 81 2.3 E 43 54 23 29 1018.4 1018.4 1.4
18/12:00pm 24.7 21.9 21.8 84 1.9 E 39 52 21 28 1018.5 1018.5 1.4
18/11:30am 24.2 21.8 22.6 91 1.1 E 39 50 21 27 1018.6 1018.6 1.4
18/11:00am 23.8 20.3 22.2 91 1.1 E 44 57 24 31 1018.8 1018.8 1.4
18/10:30am 23.4 21.9 22.0 92 0.9 ENE 33 50 18 27 1019.1 1019.1 1.2
18/10:08am 23.3 22.2 21.7 91 1.1 ENE 30 54 16 29 1019.2 1019.2 0.8
18/10:00am 23.8 21.9 22.1 90 1.1 E 35 48 19 26 1019.1 1019.1 0.0
18/09:30am 24.7 23.2 22.0 85 1.8 ENE 33 48 18 26 1019.0 1019.0 0.0
18/09:00am 24.8 22.8 21.9 84 1.9 E 35 52 19 28 1018.8 1018.8 7.6
18/08:55am 24.8 23.5 22.1 85 1.8 E 32 50 17 27 1018.8 1018.8 7.6
18/08:30am 24.9 24.3 22.6 87 1.5 ENE 30 44 16 24 1018.7 1018.7 7.6
18/08:00am 24.3 23.3 22.6 90 1.1 ENE 32 43 17 23 1018.4 1018.4 7.6
18/07:30am 23.8 22.7 22.4 92 0.9 E 32 43 17 23 1018.1 1018.1 7.6
18/07:00am 23.9 22.1 22.3 91 1.1 E 35 44 19 24 1017.8 1017.8 7.6
18/06:30am 24.1 22.8 22.4 90 1.1 E 33 44 18 24 1017.3 1017.3 7.6
18/06:00am 23.8 22.4 22.2 91 1.1 E 33 43 18 23 1016.6 1016.6 7.6
18/05:30am 24.1 23.0 22.4 90 1.1 E 32 41 17 22 1016.3 1016.3 7.6
18/05:00am 23.9 22.7 22.2 90 1.1 E 32 44 17 24 1016.0 1016.0 7.6
18/04:30am 23.9 23.4 22.2 90 1.1 ENE 28 41 15 22 1015.6 1015.6 7.6
18/04:00am 23.8 22.9 22.2 91 1.1 ENE 30 43 16 23 1015.2 1015.2 7.6
18/03:30am 23.8 24.2 22.4 92 0.9 ENE 24 35 13 19 1015.0 1015.0 7.6
18/03:00am 23.4 22.9 22.2 93 0.8 E 28 39 15 21 1014.9 1014.9 7.6
18/02:30am 23.0 22.1 22.2 95 0.5 E 30 39 16 21 1015.1 1015.1 7.6
18/02:00am 22.8 21.4 22.0 95 0.5 E 32 48 17 26 1015.1 1015.1 7.4
18/01:30am 23.6 22.1 22.0 91 1.1 E 33 46 18 25 1015.4 1015.4 7.2
18/01:00am 23.8 22.5 22.1 90 1.1 E 32 46 17 25 1015.7 1015.7 7.0
18/12:30am 23.9 22.7 22.3 91 1.1 E 32 43 17 23 1015.8 1015.8 7.0
18/12:00am 23.7 22.2 22.1 91 1.1 E 33 43 18 23 1016.2 1016.2 7.0
 
Date/Time
EST
Temp
°C
App
Temp
°C
Dew
Point
°C
Rel
Hum
%
Delta-T
°C
Wind Press
QNH
hPa
Press
MSL
hPa
Rain since
9am
mm
Dir  Spd
km/h
Gust
km/h
Spd
kts
Gust
kts
17/11:30pm 23.7 21.8 22.1 91 1.1 E 35 48 19 26 1016.4 1016.4 7.0
17/11:00pm 23.1 20.7 21.9 93 0.8 E 37 52 20 28 1016.7 1016.7 6.8
17/10:35pm 23.7 21.8 22.0 90 1.1 E 35 54 19 29 1016.8 1016.8 5.4
17/10:30pm 23.8 22.3 22.1 90 1.1 E 33 44 18 24 1016.8 1016.8 5.4
17/10:00pm 23.8 21.9 22.1 90 1.1 E 35 46 19 25 1016.9 1016.9 5.4
17/09:30pm 23.8 21.7 21.7 88 1.4 E 35 48 19 26 1016.9 1016.9 5.4
17/09:00pm 24.0 22.1 22.1 89 1.3 E 35 48 19 26 1017.1 1017.1 5.4
17/08:30pm 24.1 21.6 21.6 86 1.7 E 37 52 20 28 1017.1 1017.1 5.4
17/08:00pm 24.2 22.1 21.7 86 1.7 E 35 48 19 26 1016.7 1016.7 5.4
17/07:30pm 24.1 20.6 21.2 84 1.9 E 41 52 22 28 1016.4 1016.4 5.4
17/07:00pm 24.1 20.5 21.0 83 2.0 E 41 52 22 28 1016.0 1016.0 5.4
17/06:30pm 24.0 20.1 21.5 86 1.7 E 44 54 24 29 1015.5 1015.5 5.4
17/06:00pm 23.8 20.0 21.3 86 1.6 E 43 57 23 31 1014.9 1014.9 5.4
17/05:30pm 23.7 20.8 21.6 88 1.4 ENE 39 54 21 29 1014.6 1014.6 5.4
17/05:12pm 23.7 20.2 21.2 86 1.6 E 41 61 22 33 1014.0 1014.0 5.4
17/05:00pm 23.7 20.0 21.6 88 1.4 E 43 54 23 29 1013.9 1013.9 5.4
17/04:30pm 23.3 20.4 21.6 90 1.1 E 39 56 21 30 1013.3 1013.3 5.4
17/04:16pm 23.2 20.3 21.5 90 1.1 E 39 57 21 31 1013.3 1013.3 5.4
17/04:00pm 23.3 20.4 21.6 90 1.1 E 39 52 21 28 1013.1 1013.1 5.4
17/03:38pm 23.3 22.5 21.7 91 1.1 ENE 28 46 15 25 1013.1 1013.1 5.4
17/03:30pm 23.4 22.8 22.0 92 0.9 ENE 28 41 15 22 1013.1 1013.1 5.4
17/03:00pm 23.3 22.8 22.1 93 0.8 ENE 28 48 15 26 1013.0 1013.0 5.4
17/02:30pm 23.4 21.9 21.7 90 1.1 ENE 32 52 17 28 1013.4 1013.4 1.6
17/02:19pm 23.3 22.4 21.4 89 1.3 ENE 28 52 15 28 1013.3 1013.3 1.2
17/02:00pm 24.3 23.8 22.2 88 1.4 ENE 28 43 15 23 1013.4 1013.4 1.2
17/01:47pm 23.6 23.0 22.0 91 1.1 ENE 28 46 15 25 1013.4 1013.4 1.2
17/01:30pm 24.2 23.7 22.1 88 1.4 ENE 28 43 15 23 1013.5 1013.5 0.6
17/01:00pm 25.0 23.5 21.7 82 2.2 ENE 32 48 17 26 1013.6 1013.6 0.2
17/12:31pm 26.0 24.6 21.9 78 2.7 ENE 32 50 17 27 1013.7 1013.7 0.2
17/12:30pm 26.0 24.5 22.1 79 2.6 ENE 33 50 18 27 1013.7 1013.7 0.2
17/12:00pm 25.5 24.0 21.8 80 2.5 ENE 32 50 17 27 1014.2 1014.2 0.0
17/11:30am 24.7 22.6 21.0 80 2.4 ENE 33 57 18 31 1014.9 1014.9 0.0
17/11:00am 25.0 23.3 21.3 80 2.4 ENE 32 50 17 27 1015.0 1015.0 0.0
17/10:30am 25.4 23.4 21.9 81 2.3 ENE 35 54 19 29 1015.1 1015.1 0.0
17/10:01am 25.1 22.3 21.8 82 2.2 ENE 39 57 21 31 1014.7 1014.7 0.0
17/10:00am 25.1 21.8 21.6 81 2.3 ENE 41 57 22 31 1014.7 1014.7 0.0
17/09:30am 24.4 21.4 21.3 83 2.0 ENE 39 57 21 31 1014.8 1014.8 0.0
17/09:00am 24.5 21.8 21.2 82 2.2 ENE 37 56 20 30 1015.2 1015.2 8.6
17/08:34am 24.1 22.7 22.2 89 1.3 ENE 33 52 18 28 1015.2 1015.2 8.6
17/08:30am 23.9 21.6 22.0 89 1.3 ENE 37 52 20 28 1015.1 1015.1 8.6
17/08:19am 23.3 19.5 21.4 89 1.3 E 43 61 23 33 1015.0 1015.0 8.6
17/08:00am 23.8 21.3 21.7 88 1.4 ENE 37 54 20 29 1015.0 1015.0 8.6
17/07:49am 23.9 20.6 21.6 87 1.5 E 41 59 22 32 1015.0 1015.0 8.6
17/07:30am 23.5 19.5 21.2 87 1.5 ENE 44 59 24 32 1014.4 1014.4 8.6
17/07:00am 23.8 20.5 20.9 84 1.9 E 39 52 21 28 1014.2 1014.2 8.6
17/06:30am 23.5 19.4 20.0 81 2.3 E 41 52 22 28 1013.7 1013.7 8.6
17/06:00am 23.5 20.2 20.8 85 1.8 E 39 50 21 27 1013.3 1013.3 8.6
17/05:30am 23.4 19.7 20.7 85 1.8 E 41 52 22 28 1013.0 1013.0 8.6
17/05:00am 23.2 19.8 20.7 86 1.6 E 39 54 21 29 1012.5 1012.5 8.6
17/04:30am 22.9 19.6 20.8 88 1.4 E 39 50 21 27 1012.7 1012.7 8.6
17/04:00am 22.9 20.6 20.6 87 1.5 E 33 44 18 24 1012.5 1012.5 8.6
17/03:30am 23.0 20.8 20.7 87 1.5 E 33 43 18 23 1012.1 1012.1 8.6
17/03:00am 23.0 20.0 20.7 87 1.5 E 37 46 20 25 1011.8 1011.8 8.6
17/02:30am 23.0 19.8 20.3 85 1.7 E 37 46 20 25 1012.2 1012.2 8.6
17/02:00am 22.7 18.8 20.4 87 1.5 E 41 52 22 28 1012.4 1012.4 8.6
17/01:30am 22.7 18.9 20.6 88 1.4 E 41 50 22 27 1012.7 1012.7 8.6
17/01:13am 22.6 19.0 20.9 90 1.1 E 41 59 22 32 1012.7 1012.7 8.6
17/01:00am 22.6 19.3 20.9 90 1.1 E 39 54 21 29 1013.0 1013.0 8.6
17/12:30am 22.8 19.4 21.3 91 1.0 E 41 57 22 31 1013.4 1013.4 6.4
17/12:00am 23.4 19.0 20.5 84 1.9 E 44 59 24 32 1013.3 1013.3 5.8
 
Date/Time
EST
Temp
°C
App
Temp
°C
Dew
Point
°C
Rel
Hum
%
Delta-T
°C
Wind Press
QNH
hPa
Press
MSL
hPa
Rain since
9am
mm
Dir  Spd
km/h
Gust
km/h
Spd
kts
Gust
kts
16/11:30pm 23.3 19.1 20.6 85 1.8 E 43 56 23 30 1013.7 1013.7 5.8
16/11:00pm 22.8 18.4 20.5 87 1.5 E 44 59 24 32 1014.0 1014.0 5.8
16/10:30pm 23.3 19.4 21.2 88 1.4 E 43 54 23 29 1013.9 1013.9 5.8
16/10:00pm 23.3 20.5 21.7 91 1.1 E 39 50 21 27 1013.4 1013.4 5.8
16/09:30pm 23.0 21.4 21.8 93 0.8 E 33 44 18 24 1013.7 1013.7 5.6
16/09:00pm 22.9 19.6 21.5 92 0.9 ESE 41 52 22 28 1013.6 1013.6 5.6
16/08:30pm 23.1 18.9 21.7 92 0.9 ESE 46 61 25 33 1013.4 1013.4 5.6
16/08:00pm 23.1 17.3 21.4 90 1.1 ESE 54 67 29 36 1012.8 1012.8 5.6
16/07:30pm 23.1 18.0 21.4 90 1.1 ESE 50 67 27 36 1012.5 1012.5 5.6
16/07:24pm 23.1 18.3 21.2 89 1.2 ESE 48 67 26 36 1012.3 1012.3 5.6
16/07:00pm 23.2 19.0 21.6 91 1.1 E 46 63 25 34 1011.8 1011.8 5.6
16/06:53pm 23.6 20.9 22.0 91 1.1 E 39 59 21 32 1011.6 1011.6 5.6
16/06:30pm 22.9 20.3 22.1 95 0.5 SE 39 59 21 32 1011.0 1011.0 5.6
16/06:24pm 22.2 17.5 21.4 95 0.5 SE 48 67 26 36 1011.1 1011.1 5.6
16/06:00pm 22.0 18.5 21.2 95 0.5 SSE 41 56 22 30 1011.1 1011.1 5.4
16/05:43pm 21.9 17.5 20.4 91 1.0 SE 44 63 24 34 1011.2 1011.2 5.4
16/05:30pm 21.9 16.8 20.7 93 0.8 SE 48 63 26 34 1011.4 1011.4 5.4
16/05:09pm 21.4 16.3 19.9 91 1.0 SE 46 65 25 35 1011.3 1011.3 5.4
16/05:00pm 21.4 15.6 19.9 91 1.0 SE 50 65 27 35 1011.3 1011.3 5.4
16/04:48pm 21.5 15.5 19.6 89 1.2 SE 50 69 27 37 1011.6 1011.6 5.4
16/04:30pm 21.2 15.5 19.3 89 1.2 SE 48 61 26 33 1011.8 1011.8 5.4
16/04:00pm 21.2 15.7 19.8 92 0.9 SE 48 65 26 35 1011.3 1011.3 5.4
16/03:34pm 21.5 15.7 20.0 91 1.0 SE 50 69 27 37 1011.3 1011.3 5.4
16/03:30pm 21.6 15.9 20.1 91 1.0 SE 50 65 27 35 1011.2 1011.2 5.4
16/03:01pm 21.6 15.7 19.7 89 1.2 ESE 50 69 27 37 1011.2 1011.2 5.2
16/03:00pm 21.6 15.2 19.5 88 1.3 ESE 52 69 28 37 1011.1 1011.1 5.2
16/02:52pm 22.1 16.8 20.2 89 1.2 SE 48 67 26 36 1011.0 1011.0 5.2
16/02:30pm 22.6 17.7 20.3 87 1.5 SE 46 61 25 33 1011.0 1011.0 5.2
16/02:00pm 22.6 18.5 20.7 89 1.2 SE 43 54 23 29 1011.2 1011.2 5.2
16/01:30pm 22.4 19.7 21.2 93 0.8 ESE 37 46 20 25 1011.4 1011.4 5.2
16/01:00pm 22.3 19.4 20.8 91 1.0 ESE 37 44 20 24 1011.8 1011.8 4.8
16/12:30pm 22.7 20.4 21.3 92 0.9 E 35 46 19 25 1012.1 1012.1 3.6
16/12:00pm 23.5 21.6 22.1 92 0.9 E 35 46 19 25 1012.2 1012.2 3.6
16/11:30am 22.8 19.6 21.8 94 0.7 E 41 52 22 28 1012.5 1012.5 3.6
16/11:00am 24.1 21.3 21.8 87 1.5 E 39 50 21 27 1013.0 1013.0 0.8
16/10:30am 24.5 21.5 22.2 87 1.5 ESE 41 52 22 28 1013.0 1013.0 0.8
16/10:16am 23.4 22.4 21.3 88 1.4 ESE 28 52 15 28 1013.0 1013.0 0.4
16/10:00am 23.6 22.4 21.5 88 1.4 E 30 41 16 22 1013.2 1013.2 0.4
16/09:30am 24.0 22.4 21.5 86 1.7 E 32 41 17 22 1013.1 1013.1 0.0
16/09:00am 24.7 23.1 21.6 83 2.1 E 32 41 17 22 1013.3 1013.3 6.2
16/08:30am 24.3 22.4 21.0 82 2.2 E 32 41 17 22 1013.2 1013.2 6.2
16/08:00am 23.7 21.8 21.0 85 1.8 E 32 43 17 23 1013.1 1013.1 6.2
16/07:30am 23.8 21.5 21.3 86 1.6 E 35 44 19 24 1012.7 1012.7 6.0
16/07:00am 23.8 22.7 21.1 85 1.8 ENE 28 39 15 21 1012.2 1012.2 6.0
16/06:30am 23.7 21.6 21.0 85 1.8 E 33 44 18 24 1011.9 1011.9 6.0
16/06:00am 23.3 20.0 20.8 86 1.6 E 39 48 21 26 1011.5 1011.5 6.0
16/05:30am 23.4 22.0 21.1 87 1.5 ENE 30 39 16 21 1011.2 1011.2 6.0
16/05:00am 23.1 21.8 21.4 90 1.1 ENE 30 39 16 21 1011.0 1011.0 6.0
16/04:30am 23.5 22.6 21.4 88 1.4 E 28 39 15 21 1010.6 1010.6 4.4
16/04:00am 23.1 21.1 20.8 87 1.5 E 32 39 17 21 1010.2 1010.2 4.4
16/03:30am 23.0 21.1 20.9 88 1.4 E 32 43 17 23 1010.1 1010.1 4.4
16/03:00am 21.8 21.2 20.4 92 0.9 E 24 33 13 18 1010.4 1010.4 3.6
16/02:30am 22.4 20.1 20.5 89 1.2 E 33 39 18 21 1010.6 1010.6 3.0
16/02:00am 22.6 20.3 20.5 88 1.4 ESE 33 41 18 22 1010.7 1010.7 3.0
16/01:30am 23.1 21.4 20.6 86 1.6 ESE 30 37 16 20 1010.9 1010.9 3.0
16/01:00am 22.9 21.3 20.1 84 1.8 E 28 35 15 19 1011.0 1011.0 3.0
16/12:30am 23.0 21.9 20.3 85 1.7 ESE 26 33 14 18 1011.6 1011.6 3.0
16/12:00am 22.9 21.5 20.4 86 1.6 ESE 28 33 15 18 1011.7 1011.7 3.0
 
Date/Time
EST
Temp
°C
App
Temp
°C
Dew
Point
°C
Rel
Hum
%
Delta-T
°C
Wind Press
QNH
hPa
Press
MSL
hPa
Rain since
9am
mm
Dir  Spd
km/h
Gust
km/h
Spd
kts
Gust
kts
15/11:30pm 22.7 21.4 20.6 88 1.4 ESE 28 35 15 19 1012.3 1012.3 3.0
15/11:00pm 22.2 20.4 20.3 89 1.2 ESE 30 37 16 20 1012.7 1012.7 3.0
15/10:30pm 22.7 21.2 20.2 86 1.6 ESE 28 37 15 20 1012.7 1012.7 2.2
15/10:00pm 22.0 20.2 20.3 90 1.1 ESE 30 39 16 21 1012.8 1012.8 2.2
15/09:30pm 22.6 21.1 20.3 87 1.5 ESE 28 35 15 19 1012.7 1012.7 1.6

Other Formats:

Comma delimited format used in spreadsheet applications
http://www.bom.gov.au/fwo/IDQ60801/IDQ60801.94388.axf

JavaScript Object Notation format (JSON) in row-major order
http://www.bom.gov.au/fwo/IDQ60801/IDQ60801.94388.json